Time;durP1;ratioP1;P1;durP2;ratioP2;P2;SDS_P1;SDS_P2;PMS_P1;PMS_P2;Temp;Humidity;BMP_temperature;BMP_pressure;BME280_temperature;BME280_humidity;BME280_pressure;Samples;Min_cycle;Max_cycle;Signal;HPM_P1;HPM_P2
2023/02/17 00:00:07;;;;;;;1.27;1.17;;;8.20;99.90;;;;;;5072884;28;20453;-78
2023/02/17 00:02:34;;;;;;;1.63;0.77;;;8.20;99.90;;;;;;5074237;28;20882;-78
2023/02/17 00:05:02;;;;;;;0.63;0.63;;;8.20;99.90;;;;;;5073842;28;20449;-78
2023/02/17 00:07:30;;;;;;;0.60;0.60;;;8.20;99.90;;;;;;5074118;28;20472;-78
2023/02/17 00:09:57;;;;;;;0.50;0.50;;;8.20;99.90;;;;;;5056458;28;20968;-78
2023/02/17 00:12:24;;;;;;;0.40;0.33;;;8.20;99.90;;;;;;5053790;28;20454;-78
2023/02/17 00:14:51;;;;;;;1.30;0.70;;;8.20;99.90;;;;;;5069026;28;20485;-78
2023/02/17 00:17:18;;;;;;;0.50;0.50;;;8.20;99.90;;;;;;5056155;28;20466;-78
2023/02/17 00:19:44;;;;;;;0.50;0.50;;;8.30;99.90;;;;;;5073182;28;20446;-78
2023/02/17 00:22:12;;;;;;;0.53;0.50;;;8.30;99.90;;;;;;5073551;28;20811;-78
2023/02/17 00:24:40;;;;;;;1.13;0.47;;;8.30;99.90;;;;;;5055015;28;20451;-78
2023/02/17 00:27:07;;;;;;;0.57;0.57;;;8.40;99.90;;;;;;5053752;28;20478;-78
2023/02/17 00:29:34;;;;;;;0.50;0.30;;;8.40;99.90;;;;;;5070932;28;20448;-78
2023/02/17 00:32:00;;;;;;;0.50;0.40;;;8.50;99.90;;;;;;5071975;28;20442;-78
2023/02/17 00:34:27;;;;;;;0.47;0.47;;;8.50;99.90;;;;;;5072747;28;20481;-78
2023/02/17 00:36:54;;;;;;;0.63;0.60;;;8.50;99.90;;;;;;5064700;28;20900;-78
2023/02/17 00:39:22;;;;;;;0.80;0.50;;;8.50;99.90;;;;;;5053634;28;20446;-78
2023/02/17 00:41:49;;;;;;;1.23;0.90;;;8.50;99.90;;;;;;5060174;28;20442;-78
2023/02/17 00:44:17;;;;;;;1.70;0.50;;;8.50;99.90;;;;;;5073574;28;20470;-78
2023/02/17 00:46:44;;;;;;;0.90;0.90;;;8.50;99.90;;;;;;5056369;28;20540;-78
2023/02/17 00:49:15;;;;;;;0.50;0.40;;;8.60;99.90;;;;;;5073454;28;20445;-78
2023/02/17 00:51:42;;;;;;;0.80;0.57;;;8.60;99.90;;;;;;5055538;28;20446;-78
2023/02/17 00:54:09;;;;;;;0.80;0.53;;;8.60;99.90;;;;;;5053377;28;20490;-78
2023/02/17 00:56:37;;;;;;;1.47;0.47;;;8.60;99.90;;;;;;5053244;28;20473;-78
2023/02/17 00:59:05;;;;;;;6.43;0.77;;;8.70;99.90;;;;;;5054530;28;20972;-78
2023/02/17 01:01:31;;;;;;;1.10;1.00;;;8.70;99.90;;;;;;5073372;28;20461;-78
2023/02/17 01:03:58;;;;;;;0.40;0.40;;;8.60;99.90;;;;;;5072734;28;20452;-78
2023/02/17 01:06:28;;;;;;;1.90;0.73;;;8.60;99.90;;;;;;5073253;28;20472;-78
2023/02/17 01:08:55;;;;;;;0.50;0.50;;;8.60;99.90;;;;;;5073362;28;20449;-78
2023/02/17 01:11:24;;;;;;;0.70;0.57;;;8.60;99.90;;;;;;5066981;28;20450;-78
2023/02/17 01:13:52;;;;;;;0.40;0.40;;;8.60;99.90;;;;;;5069921;28;20477;-78
2023/02/17 01:16:22;;;;;;;0.60;0.60;;;8.60;99.90;;;;;;5053145;28;20470;-78
2023/02/17 01:18:49;;;;;;;1.40;0.63;;;8.60;99.90;;;;;;5055411;28;20806;-78
2023/02/17 01:21:18;;;;;;;0.90;0.50;;;8.50;99.90;;;;;;5072591;28;20764;-78
2023/02/17 01:23:44;;;;;;;1.27;0.70;;;8.50;99.90;;;;;;5053147;28;20469;-78
2023/02/17 01:26:15;;;;;;;0.53;0.40;;;8.50;99.90;;;;;;5053006;28;20458;-78
2023/02/17 01:28:42;;;;;;;0.40;0.40;;;8.40;99.90;;;;;;5053075;28;20816;-78
2023/02/17 01:31:11;;;;;;;0.50;0.50;;;8.40;99.90;;;;;;5059249;28;20457;-78
2023/02/17 01:33:39;;;;;;;0.63;0.60;;;8.40;99.90;;;;;;5072645;28;20987;-78
2023/02/17 01:36:07;;;;;;;0.50;0.50;;;8.40;99.90;;;;;;5066916;28;20442;-78
2023/02/17 01:38:35;;;;;;;0.40;0.40;;;8.40;99.90;;;;;;5053043;28;20439;-78
2023/02/17 01:41:02;;;;;;;0.93;0.93;;;8.40;99.90;;;;;;5057322;28;20450;-78
2023/02/17 01:43:29;;;;;;;0.47;0.40;;;8.40;99.90;;;;;;5072990;28;20456;-78
2023/02/17 01:45:58;;;;;;;1.50;0.73;;;8.40;99.90;;;;;;5057764;28;20461;-78
2023/02/17 01:48:28;;;;;;;0.43;0.40;;;8.30;99.90;;;;;;5056827;28;20446;-78
2023/02/17 01:50:59;;;;;;;4.03;2.40;;;8.30;99.90;;;;;;5071397;28;20445;-78
2023/02/17 01:53:32;;;;;;;1.57;0.40;;;8.30;99.90;;;;;;5076733;28;20465;-78
2023/02/17 01:55:59;;;;;;;0.57;0.50;;;8.30;99.90;;;;;;5061634;28;20434;-78
2023/02/17 01:58:27;;;;;;;0.70;0.70;;;8.20;99.90;;;;;;5056648;28;20449;-78
2023/02/17 02:00:56;;;;;;;0.60;0.60;;;8.30;99.90;;;;;;5068691;28;20457;-78
2023/02/17 02:03:23;;;;;;;1.80;0.50;;;8.20;99.90;;;;;;5056564;28;20442;-78
2023/02/17 02:05:51;;;;;;;1.37;0.57;;;8.20;99.90;;;;;;5069299;28;20450;-78
2023/02/17 02:08:18;;;;;;;0.30;0.30;;;8.30;99.90;;;;;;5076034;28;20832;-78
2023/02/17 02:10:45;;;;;;;1.10;0.70;;;8.30;99.90;;;;;;5064269;28;20450;-78
2023/02/17 02:13:12;;;;;;;1.40;0.60;;;8.30;99.90;;;;;;5055944;28;20969;-78
2023/02/17 02:15:43;;;;;;;0.30;0.30;;;8.20;99.90;;;;;;5075372;28;20449;-78
2023/02/17 02:18:26;;;;;;;0.80;0.70;;;8.20;99.90;;;;;;5076243;28;20477;-78
2023/02/17 02:21:16;;;;;;;0.60;0.47;;;8.20;99.90;;;;;;5056244;28;20439;-78
2023/02/17 02:24:03;;;;;;;10.13;0.60;;;8.30;99.90;;;;;;5068177;28;20460;-78
2023/02/17 02:26:54;;;;;;;0.40;0.40;;;8.30;99.90;;;;;;5066927;28;20462;-78
2023/02/17 02:29:48;;;;;;;0.50;0.50;;;8.30;99.90;;;;;;5045756;28;20441;-78
2023/02/17 02:32:41;;;;;;;0.80;0.40;;;8.30;99.90;;;;;;5061178;28;20431;-78
2023/02/17 02:35:13;;;;;;;0.97;0.60;;;8.30;99.90;;;;;;5055901;28;20482;-78
2023/02/17 02:37:47;;;;;;;0.40;0.33;;;8.30;99.90;;;;;;5056581;28;20485;-78
2023/02/17 02:40:16;;;;;;;0.43;0.40;;;8.20;99.90;;;;;;5075934;28;20430;-78
2023/02/17 02:42:44;;;;;;;1.37;0.57;;;8.20;99.90;;;;;;5058127;28;20446;-78
2023/02/17 02:45:12;;;;;;;0.50;0.50;;;8.20;99.90;;;;;;5055729;28;20446;-78
2023/02/17 02:47:47;;;;;;;0.40;0.40;;;8.20;99.90;;;;;;5055711;28;20997;-78
2023/02/17 02:50:16;;;;;;;0.93;0.70;;;8.20;99.90;;;;;;5055655;28;20438;-78
2023/02/17 02:52:55;;;;;;;0.97;0.50;;;8.20;99.90;;;;;;5055647;28;20454;-78
2023/02/17 02:55:32;;;;;;;0.63;0.50;;;8.20;99.90;;;;;;5056278;28;20981;-78
2023/02/17 02:58:06;;;;;;;3.50;0.40;;;8.20;99.90;;;;;;5059451;28;20896;-78
2023/02/17 03:00:38;;;;;;;0.87;0.40;;;8.20;99.90;;;;;;5055550;28;20430;-78
2023/02/17 03:03:12;;;;;;;1.57;0.97;;;8.20;99.90;;;;;;5074759;28;20446;-78
2023/02/17 03:05:47;;;;;;;1.10;0.50;;;8.20;99.90;;;;;;5075488;28;20426;-78
2023/02/17 03:08:20;;;;;;;0.60;0.40;;;8.20;99.90;;;;;;5055321;28;20469;-78
2023/02/17 03:10:48;;;;;;;0.67;0.60;;;8.20;99.90;;;;;;5055355;28;20813;-78
2023/02/17 03:13:16;;;;;;;0.50;0.50;;;8.20;99.90;;;;;;5070281;28;20445;-78
2023/02/17 03:15:43;;;;;;;2.57;0.50;;;8.20;99.90;;;;;;5074803;28;20872;-78
2023/02/17 03:18:11;;;;;;;1.43;0.50;;;8.20;99.90;;;;;;5075103;28;20474;-78
2023/02/17 03:20:41;;;;;;;0.60;0.60;;;8.20;99.90;;;;;;5072748;28;20454;-78
2023/02/17 03:23:08;;;;;;;0.60;0.50;;;8.20;99.90;;;;;;5055011;28;20945;-78
2023/02/17 03:25:35;;;;;;;0.43;0.40;;;8.20;99.90;;;;;;5054951;28;20447;-78
2023/02/17 03:28:02;;;;;;;2.50;0.60;;;8.20;99.90;;;;;;5054553;28;21016;-78
2023/02/17 03:30:29;;;;;;;0.70;0.50;;;8.30;99.90;;;;;;5065013;28;20471;-78
2023/02/17 03:32:55;;;;;;;2.83;0.90;;;8.30;99.90;;;;;;5074571;28;20445;-78
2023/02/17 03:35:23;;;;;;;1.17;0.60;;;8.30;99.90;;;;;;5065543;28;20497;-78
2023/02/17 03:37:50;;;;;;;0.57;0.57;;;8.20;99.90;;;;;;5054266;28;20497;-78
2023/02/17 03:40:17;;;;;;;0.70;0.43;;;8.20;99.90;;;;;;5054685;28;20470;-78
2023/02/17 03:42:44;;;;;;;1.97;0.53;;;8.20;99.90;;;;;;5054736;28;20442;-78
2023/02/17 03:45:11;;;;;;;0.40;0.40;;;8.20;99.90;;;;;;5060611;28;20445;-78
2023/02/17 03:47:37;;;;;;;1.00;0.50;;;8.10;99.90;;;;;;5074238;28;20469;-78
2023/02/17 03:50:05;;;;;;;2.03;0.50;;;8.10;99.90;;;;;;5061136;28;20453;-78
2023/02/17 03:52:33;;;;;;;0.40;0.37;;;8.00;99.90;;;;;;5054541;28;20438;-78
2023/02/17 03:55:00;;;;;;;1.17;0.40;;;8.00;99.90;;;;;;5056874;28;20474;-78
2023/02/17 03:57:27;;;;;;;0.57;0.40;;;8.00;99.90;;;;;;5054310;28;20470;-78
2023/02/17 03:59:53;;;;;;;0.50;0.50;;;8.00;99.90;;;;;;5068747;28;20936;-78
2023/02/17 04:02:20;;;;;;;1.27;0.60;;;8.00;99.90;;;;;;5073999;28;20449;-78
2023/02/17 04:04:47;;;;;;;0.73;0.73;;;8.00;99.90;;;;;;5073363;28;20444;-78
2023/02/17 04:07:14;;;;;;;0.40;0.40;;;8.10;99.90;;;;;;5073182;28;20465;-78
2023/02/17 04:09:42;;;;;;;1.03;0.40;;;8.20;99.90;;;;;;5073305;28;20448;-78
2023/02/17 04:12:09;;;;;;;0.97;0.97;;;8.20;99.90;;;;;;5072710;28;20442;-78
2023/02/17 04:14:35;;;;;;;0.40;0.40;;;8.30;99.90;;;;;;5054002;28;20482;-78
2023/02/17 04:17:02;;;;;;;1.30;0.47;;;8.30;99.90;;;;;;5072748;28;20472;-78
2023/02/17 04:19:29;;;;;;;2.23;0.67;;;8.30;99.90;;;;;;5073965;28;20449;-78
2023/02/17 04:21:56;;;;;;;1.23;0.67;;;8.30;99.90;;;;;;5055815;28;20454;-78
2023/02/17 04:24:22;;;;;;;0.37;0.37;;;8.30;99.90;;;;;;5053929;28;20442;-78
2023/02/17 04:26:50;;;;;;;0.90;0.50;;;8.30;99.90;;;;;;5069987;28;20472;-78
2023/02/17 04:29:17;;;;;;;0.50;0.50;;;8.40;99.90;;;;;;5072091;28;20445;-78
2023/02/17 04:31:44;;;;;;;0.80;0.80;;;8.40;99.90;;;;;;5073737;28;20445;-78
2023/02/17 04:34:10;;;;;;;0.40;0.30;;;8.30;99.90;;;;;;5064918;28;20992;-78
2023/02/17 04:36:37;;;;;;;4.53;0.40;;;8.30;99.90;;;;;;5053294;28;20482;-78
2023/02/17 04:39:04;;;;;;;0.60;0.50;;;8.20;99.90;;;;;;5059501;28;20949;-78
2023/02/17 04:41:31;;;;;;;2.40;0.47;;;8.20;99.90;;;;;;5073674;28;20813;-77
2023/02/17 04:43:59;;;;;;;0.90;0.50;;;8.20;99.90;;;;;;5065437;28;20450;-78
2023/02/17 04:46:25;;;;;;;0.97;0.50;;;8.20;99.90;;;;;;5053167;28;20985;-78
2023/02/17 04:48:52;;;;;;;0.80;0.50;;;8.20;99.90;;;;;;5055259;28;20859;-78
2023/02/17 04:51:19;;;;;;;1.13;0.40;;;8.20;99.90;;;;;;5073543;28;20516;-78
2023/02/17 04:53:45;;;;;;;0.53;0.53;;;8.20;99.90;;;;;;5055799;28;20958;-77
2023/02/17 04:56:12;;;;;;;0.87;0.60;;;8.20;99.90;;;;;;5057923;28;20939;-78
2023/02/17 04:58:39;;;;;;;0.73;0.60;;;8.20;99.90;;;;;;5074079;28;20449;-78
2023/02/17 05:01:07;;;;;;;5.13;1.33;;;8.30;99.90;;;;;;5073369;28;20445;-78
2023/02/17 05:03:34;;;;;;;0.83;0.63;;;8.30;99.90;;;;;;5072070;28;20820;-78
2023/02/17 05:06:00;;;;;;;1.63;1.07;;;8.40;99.90;;;;;;5073269;28;20441;-78
2023/02/17 05:08:27;;;;;;;0.67;0.40;;;8.40;99.90;;;;;;5055799;28;20450;-78
2023/02/17 05:10:54;;;;;;;0.47;0.40;;;8.40;99.90;;;;;;5053275;28;20526;-78
2023/02/17 05:13:21;;;;;;;0.40;0.40;;;8.50;99.90;;;;;;5071400;28;20449;-78
2023/02/17 05:15:47;;;;;;;0.80;0.70;;;8.50;99.90;;;;;;5073170;28;20477;-78
2023/02/17 05:18:15;;;;;;;0.97;0.50;;;8.50;99.90;;;;;;5055730;28;20467;-78
2023/02/17 05:20:42;;;;;;;0.47;0.47;;;8.50;99.90;;;;;;5053209;28;20942;-78
2023/02/17 05:23:09;;;;;;;0.50;0.50;;;8.40;99.90;;;;;;5072995;28;20449;-78
2023/02/17 05:25:35;;;;;;;0.50;0.40;;;8.40;99.90;;;;;;5076660;28;20949;-78
2023/02/17 05:28:02;;;;;;;0.50;0.50;;;8.40;99.90;;;;;;5076966;28;20605;-78
2023/02/17 05:30:29;;;;;;;0.73;0.40;;;8.40;99.90;;;;;;5077270;28;20449;-78
2023/02/17 05:32:55;;;;;;;0.70;0.70;;;8.40;99.90;;;;;;5058847;28;20447;-78
2023/02/17 05:35:24;;;;;;;0.77;0.40;;;8.40;99.90;;;;;;5056954;28;20494;-78
2023/02/17 05:37:51;;;;;;;0.83;0.50;;;8.40;99.90;;;;;;5073196;28;20477;-78
2023/02/17 05:40:17;;;;;;;0.40;0.30;;;8.50;99.90;;;;;;5069242;28;20457;-78
2023/02/17 05:42:44;;;;;;;0.40;0.30;;;8.50;99.90;;;;;;5056999;28;20810;-78
2023/02/17 05:45:11;;;;;;;1.80;0.43;;;8.50;99.90;;;;;;5062389;28;20442;-78
2023/02/17 05:47:38;;;;;;;0.90;0.37;;;8.50;99.90;;;;;;5056455;28;20993;-78
2023/02/17 05:50:06;;;;;;;0.87;0.40;;;8.50;99.90;;;;;;5057575;28;20946;-78
2023/02/17 05:52:34;;;;;;;0.70;0.70;;;8.50;99.90;;;;;;5056772;28;20854;-78
2023/02/17 05:55:02;;;;;;;0.90;0.40;;;8.50;99.90;;;;;;5066057;28;20889;-78
2023/02/17 05:57:29;;;;;;;0.67;0.40;;;8.50;99.90;;;;;;5076312;28;21027;-78
2023/02/17 05:59:56;;;;;;;1.13;0.40;;;8.50;99.90;;;;;;5067653;28;20458;-78
2023/02/17 06:02:22;;;;;;;0.63;0.63;;;8.60;99.90;;;;;;5056621;28;20450;-78
2023/02/17 06:04:49;;;;;;;1.63;0.50;;;8.60;99.90;;;;;;5056703;28;20800;-78
2023/02/17 06:07:16;;;;;;;0.37;0.30;;;8.70;99.90;;;;;;5056407;28;20470;-78
2023/02/17 06:09:44;;;;;;;0.60;0.60;;;8.70;99.90;;;;;;5065427;28;20445;-78
2023/02/17 06:12:10;;;;;;;0.60;0.60;;;8.80;99.90;;;;;;5069099;28;20447;-78
2023/02/17 06:14:37;;;;;;;0.63;0.63;;;8.80;99.90;;;;;;5056303;28;20450;-78
2023/02/17 06:17:04;;;;;;;0.37;0.33;;;8.90;99.90;;;;;;5056944;28;20466;-78
2023/02/17 06:19:30;;;;;;;1.00;0.50;;;8.90;99.90;;;;;;5075986;28;20453;-78
2023/02/17 06:21:57;;;;;;;0.50;0.40;;;8.90;99.90;;;;;;5067056;28;20453;-78
2023/02/17 06:24:25;;;;;;;0.40;0.40;;;8.90;99.90;;;;;;5056986;28;20971;-78
2023/02/17 06:26:53;;;;;;;0.87;0.80;;;8.80;99.90;;;;;;5075985;28;20505;-78
2023/02/17 06:29:19;;;;;;;13.57;0.90;;;8.80;99.90;;;;;;5075447;28;20445;-78
2023/02/17 06:31:46;;;;;;;1.77;0.70;;;8.80;99.90;;;;;;5066352;28;20441;-78
2023/02/17 06:34:13;;;;;;;1.17;0.40;;;8.80;99.90;;;;;;5076059;28;20450;-78
2023/02/17 06:36:40;;;;;;;1.27;1.03;;;8.70;99.90;;;;;;5058511;28;20486;-78
2023/02/17 06:39:06;;;;;;;0.80;0.30;;;8.70;99.90;;;;;;5074230;28;20448;-78
2023/02/17 06:41:33;;;;;;;0.60;0.60;;;8.70;99.90;;;;;;5064370;28;20458;-78
2023/02/17 06:44:02;;;;;;;1.83;0.50;;;8.70;99.90;;;;;;5059952;28;20493;-78
2023/02/17 06:46:30;;;;;;;0.53;0.53;;;8.70;99.90;;;;;;5076198;28;20457;-78
2023/02/17 06:48:58;;;;;;;0.47;0.33;;;8.70;99.90;;;;;;5073424;28;20445;-78
2023/02/17 06:51:25;;;;;;;0.90;0.90;;;8.70;99.90;;;;;;5063310;28;20810;-78
2023/02/17 06:53:52;;;;;;;1.33;0.70;;;8.70;99.90;;;;;;5075051;28;20457;-78
2023/02/17 06:56:19;;;;;;;0.40;0.40;;;8.70;99.90;;;;;;5075488;28;20492;-78
2023/02/17 06:58:45;;;;;;;1.27;1.17;;;8.70;99.90;;;;;;5074911;28;20453;-78
2023/02/17 07:01:18;;;;;;;0.43;0.40;;;8.70;99.90;;;;;;5067942;28;20934;-78
2023/02/17 07:03:45;;;;;;;0.80;0.40;;;8.70;99.90;;;;;;5061759;28;20443;-78
2023/02/17 07:06:12;;;;;;;0.40;0.30;;;8.70;99.90;;;;;;5055064;28;20442;-78
2023/02/17 07:08:38;;;;;;;1.20;0.90;;;8.70;99.90;;;;;;5066931;28;20446;-78
2023/02/17 07:11:06;;;;;;;0.50;0.30;;;8.80;99.90;;;;;;5075318;28;20471;-78
2023/02/17 07:13:33;;;;;;;3.80;0.83;;;8.80;99.90;;;;;;5073306;28;20446;-78
2023/02/17 07:16:00;;;;;;;0.50;0.50;;;8.90;99.90;;;;;;5072512;28;20481;-78
2023/02/17 07:18:28;;;;;;;1.03;0.50;;;8.90;99.90;;;;;;5057894;28;20956;-78
2023/02/17 07:20:54;;;;;;;0.77;0.60;;;8.90;99.90;;;;;;5074145;28;20474;-78
2023/02/17 07:23:21;;;;;;;0.30;0.30;;;8.90;99.90;;;;;;5073935;28;20822;-78
2023/02/17 07:25:48;;;;;;;0.40;0.30;;;9.00;99.90;;;;;;5074725;28;21139;-78
2023/02/17 07:28:15;;;;;;;0.97;0.53;;;9.00;99.90;;;;;;5055174;28;20473;-78
2023/02/17 07:30:43;;;;;;;0.50;0.40;;;9.00;99.90;;;;;;5054949;28;20453;-78
2023/02/17 07:33:11;;;;;;;0.60;0.50;;;9.10;99.90;;;;;;5056778;28;20458;-78
2023/02/17 07:35:43;;;;;;;2.10;1.97;;;9.10;99.90;;;;;;5054776;28;20482;-77
2023/02/17 07:38:10;;;;;;;0.97;0.50;;;9.10;99.90;;;;;;5071796;28;21020;-78
2023/02/17 07:40:37;;;;;;;0.40;0.40;;;9.20;99.90;;;;;;5065406;28;20447;-78
2023/02/17 07:43:04;;;;;;;0.40;0.40;;;9.20;99.90;;;;;;5054661;28;20447;-78
2023/02/17 07:45:32;;;;;;;1.63;0.40;;;9.20;99.90;;;;;;5054179;28;20443;-78
2023/02/17 07:47:58;;;;;;;2.00;1.40;;;9.30;99.90;;;;;;5058839;28;20461;-78
2023/02/17 07:50:25;;;;;;;1.17;0.73;;;9.20;99.90;;;;;;5072827;28;20446;-78
2023/02/17 07:52:53;;;;;;;0.70;0.40;;;9.30;99.90;;;;;;5070903;28;20793;-78
2023/02/17 07:55:20;;;;;;;0.50;0.50;;;9.30;99.90;;;;;;5069272;28;20500;-78
2023/02/17 07:57:47;;;;;;;1.00;0.50;;;9.50;99.90;;;;;;5071910;28;20472;-78
2023/02/17 08:00:15;;;;;;;0.40;0.40;;;9.60;99.90;;;;;;5054065;28;20941;-78
2023/02/17 08:02:41;;;;;;;0.30;0.30;;;9.60;99.90;;;;;;5054595;28;20458;-78
2023/02/17 08:05:08;;;;;;;4.63;0.60;;;9.70;99.90;;;;;;5070554;28;20443;-78
2023/02/17 08:07:35;;;;;;;0.43;0.40;;;9.80;99.90;;;;;;5054143;28;20476;-78
2023/02/17 08:15:33;;;;;;;0.80;0.47;;;10.00;99.90;;;;;;5053989;28;20464;-77
2023/02/17 08:18:01;;;;;;;1.10;1.00;;;10.10;99.90;;;;;;5063647;28;20992;-78
2023/02/17 08:20:28;;;;;;;2.73;1.57;;;10.20;99.90;;;;;;5074444;28;20449;-78
2023/02/17 08:22:54;;;;;;;0.40;0.40;;;10.40;99.90;;;;;;5065101;28;20443;-78
2023/02/17 08:25:22;;;;;;;0.57;0.43;;;10.60;99.90;;;;;;5053612;28;20942;-78
2023/02/17 08:27:49;;;;;;;0.40;0.40;;;10.70;99.90;;;;;;5070144;28;20465;-78
2023/02/17 08:30:16;;;;;;;2.00;0.40;;;10.80;99.90;;;;;;5060540;28;20454;-78
2023/02/17 08:32:46;;;;;;;0.60;0.60;;;10.90;99.90;;;;;;5053779;28;20451;-78
2023/02/17 08:35:13;;;;;;;0.80;0.80;;;10.80;99.90;;;;;;5065259;28;20457;-78
2023/02/17 08:37:39;;;;;;;0.70;0.70;;;10.90;99.90;;;;;;5073130;28;21011;-78
2023/02/17 08:40:07;;;;;;;1.53;1.00;;;10.80;99.90;;;;;;5067351;28;20448;-78
2023/02/17 08:42:37;;;;;;;0.90;0.40;;;10.90;99.90;;;;;;5073660;28;20456;-78
2023/02/17 08:45:05;;;;;;;1.23;0.70;;;11.00;99.90;;;;;;5070133;28;20519;-78
2023/02/17 08:47:31;;;;;;;0.57;0.57;;;11.00;99.90;;;;;;5054550;28;20833;-78
2023/02/17 08:49:58;;;;;;;0.80;0.40;;;11.00;99.90;;;;;;5053572;28;20454;-78
2023/02/17 08:52:25;;;;;;;1.07;0.50;;;11.30;99.90;;;;;;5054864;28;20965;-78
2023/02/17 08:54:52;;;;;;;0.40;0.40;;;11.50;99.90;;;;;;5053215;28;20455;-77
2023/02/17 08:57:20;;;;;;;0.80;0.80;;;11.60;99.90;;;;;;5052777;28;20486;-78
2023/02/17 08:59:49;;;;;;;0.43;0.43;;;11.80;99.90;;;;;;5053285;28;20456;-78
2023/02/17 09:02:16;;;;;;;1.97;0.60;;;11.80;99.90;;;;;;5053366;28;20819;-78
2023/02/17 09:04:43;;;;;;;0.90;0.70;;;11.70;99.90;;;;;;5053344;28;20443;-77
2023/02/17 09:07:11;;;;;;;0.80;0.53;;;11.50;99.90;;;;;;5053223;28;20482;-78
2023/02/17 09:09:38;;;;;;;0.40;0.40;;;11.30;99.90;;;;;;5052475;28;20876;-78
2023/02/17 09:12:05;;;;;;;0.60;0.60;;;11.10;99.90;;;;;;5052886;28;21002;-78
2023/02/17 09:14:32;;;;;;;1.53;0.80;;;11.10;99.90;;;;;;5052955;28;20454;-78
2023/02/17 09:17:00;;;;;;;1.30;0.60;;;11.00;99.90;;;;;;5053025;28;20490;-78
2023/02/17 09:19:27;;;;;;;0.50;0.50;;;10.90;99.90;;;;;;5053026;28;20454;-78
2023/02/17 09:21:54;;;;;;;0.80;0.33;;;10.70;99.90;;;;;;5052863;28;20447;-78
2023/02/17 09:24:20;;;;;;;0.43;0.43;;;10.60;99.90;;;;;;5052921;28;20941;-78
2023/02/17 09:26:47;;;;;;;0.73;0.67;;;10.60;99.90;;;;;;5052615;28;20462;-78
2023/02/17 09:29:14;;;;;;;0.57;0.50;;;10.70;99.90;;;;;;5052599;28;20438;-77
2023/02/17 09:31:41;;;;;;;1.90;1.13;;;10.70;99.90;;;;;;5052413;28;20821;-77
2023/02/17 09:34:09;;;;;;;0.40;0.30;;;10.70;99.90;;;;;;5052809;28;20453;-77
2023/02/17 09:36:39;;;;;;;1.60;0.47;;;10.60;99.90;;;;;;5052355;28;20497;-77
2023/02/17 09:39:08;;;;;;;0.60;0.60;;;10.70;99.90;;;;;;5052863;28;20454;-77
2023/02/17 09:41:39;;;;;;;0.40;0.30;;;10.70;99.90;;;;;;5053011;28;20450;-77
2023/02/17 09:44:07;;;;;;;0.87;0.40;;;10.80;99.90;;;;;;5052751;28;20820;-77
2023/02/17 09:46:39;;;;;;;1.33;0.60;;;10.90;99.90;;;;;;5052448;28;21012;-77
2023/02/17 09:49:12;;;;;;;0.57;0.40;;;10.90;99.90;;;;;;5052404;28;20455;-77
2023/02/17 09:51:44;;;;;;;0.90;0.60;;;10.90;99.90;;;;;;5052912;28;20435;-77
2023/02/17 09:54:16;;;;;;;0.40;0.40;;;11.00;99.90;;;;;;5052689;28;20457;-77
2023/02/17 09:56:45;;;;;;;0.83;0.43;;;11.10;99.90;;;;;;5052429;28;20855;-77
2023/02/17 09:59:17;;;;;;;0.80;0.50;;;11.10;99.90;;;;;;5052552;28;20478;-77
2023/02/17 10:01:46;;;;;;;0.50;0.50;;;11.20;99.90;;;;;;5052302;28;20926;-77
2023/02/17 10:04:19;;;;;;;0.50;0.50;;;11.30;99.90;;;;;;5052789;28;20453;-77
2023/02/17 10:06:49;;;;;;;2.37;0.47;;;11.40;99.90;;;;;;5052870;28;20458;-77
2023/02/17 10:09:23;;;;;;;0.50;0.40;;;11.40;99.90;;;;;;5056583;28;20434;-77
2023/02/17 10:11:54;;;;;;;0.70;0.40;;;11.60;99.90;;;;;;5056303;28;20438;-77
2023/02/17 10:14:25;;;;;;;0.87;0.40;;;11.90;99.90;;;;;;5056179;28;20434;-77
2023/02/17 10:16:56;;;;;;;0.40;0.40;;;12.30;99.90;;;;;;5055820;28;20494;-78
2023/02/17 10:19:29;;;;;;;0.30;0.30;;;12.50;99.90;;;;;;5056229;28;20446;-77
2023/02/17 10:22:02;;;;;;;0.50;0.50;;;12.70;99.90;;;;;;5055744;28;20448;-77
2023/02/17 10:24:29;;;;;;;0.93;0.50;;;12.80;99.90;;;;;;5056223;28;20426;-77
2023/02/17 10:27:10;;;;;;;0.67;0.43;;;12.70;99.90;;;;;;5055946;28;20473;-77
2023/02/17 10:29:50;;;;;;;0.40;0.30;;;12.50;99.90;;;;;;5056106;28;20442;-77
2023/02/17 10:32:22;;;;;;;1.00;0.50;;;12.40;99.90;;;;;;5055770;28;20950;-77
2023/02/17 10:35:11;;;;;;;0.40;0.30;;;12.20;99.90;;;;;;5057148;28;20489;-77
2023/02/17 10:37:45;;;;;;;1.27;0.50;;;12.20;99.90;;;;;;5055386;28;20486;-77
2023/02/17 10:40:16;;;;;;;0.50;0.30;;;12.20;99.90;;;;;;5055940;28;20434;-77
2023/02/17 10:42:43;;;;;;;0.40;0.40;;;12.30;99.90;;;;;;5055932;28;20431;-77
2023/02/17 10:45:15;;;;;;;0.40;0.30;;;12.50;99.90;;;;;;5055741;28;20438;-79
2023/02/17 10:47:42;;;;;;;0.40;0.40;;;12.70;99.90;;;;;;5055655;28;20462;-79
2023/02/17 10:50:19;;;;;;;0.57;0.40;;;12.90;99.90;;;;;;5055682;28;20450;-78
2023/02/17 10:52:46;;;;;;;0.40;0.33;;;13.10;99.90;;;;;;5055368;28;20463;-78
2023/02/17 10:55:21;;;;;;;0.40;0.30;;;13.30;99.90;;;;;;5054907;28;20447;-78
2023/02/17 10:57:52;;;;;;;0.40;0.40;;;13.30;99.90;;;;;;5055695;28;20498;-78
2023/02/17 11:00:20;;;;;;;0.50;0.40;;;13.50;99.90;;;;;;5055566;28;20442;-78
2023/02/17 11:02:49;;;;;;;0.40;0.30;;;13.70;99.90;;;;;;5055527;28;20435;-78
2023/02/17 11:05:26;;;;;;;0.47;0.40;;;13.70;99.90;;;;;;5055415;28;20458;-78
2023/02/17 11:07:59;;;;;;;0.67;0.67;;;13.90;99.90;;;;;;5055402;28;20465;-78
2023/02/17 11:10:30;;;;;;;0.40;0.40;;;14.10;99.90;;;;;;5055609;28;20457;-78
2023/02/17 11:12:57;;;;;;;0.40;0.30;;;14.00;99.90;;;;;;5055400;28;20468;-78
2023/02/17 11:15:28;;;;;;;0.40;0.30;;;14.10;99.90;;;;;;5055262;28;20480;-78
2023/02/17 11:17:56;;;;;;;0.40;0.30;;;14.20;99.90;;;;;;5055105;28;20486;-78
2023/02/17 11:20:33;;;;;;;0.30;0.30;;;14.20;99.90;;;;;;5054451;28;20450;-78
2023/02/17 11:23:09;;;;;;;0.50;0.40;;;14.30;99.90;;;;;;5055193;28;20438;-78
2023/02/17 11:25:37;;;;;;;3.23;0.53;;;14.40;99.90;;;;;;5054770;28;20901;-78
2023/02/17 11:28:05;;;;;;;0.30;0.30;;;14.50;99.90;;;;;;5054924;28;20470;-78
2023/02/17 11:30:34;;;;;;;0.50;0.40;;;14.60;99.90;;;;;;5054974;28;20450;-79
2023/02/17 11:33:11;;;;;;;0.30;0.20;;;14.60;99.90;;;;;;5054892;28;20453;-79
2023/02/17 11:35:48;;;;;;;1.23;0.70;;;14.80;99.90;;;;;;5054940;28;20476;-78
2023/02/17 11:38:17;;;;;;;0.50;0.40;;;14.90;99.90;;;;;;5054270;28;20570;-78
2023/02/17 11:40:53;;;;;;;0.47;0.40;;;14.90;99.90;;;;;;5054804;28;20454;-76
2023/02/17 11:43:20;;;;;;;0.40;0.30;;;15.00;99.90;;;;;;5054778;28;20450;-76
2023/02/17 11:45:56;;;;;;;0.50;0.40;;;14.90;99.90;;;;;;5054666;28;20450;-78
2023/02/17 11:48:41;;;;;;;0.40;0.30;;;14.60;99.90;;;;;;5054427;28;20426;-77
2023/02/17 11:51:18;;;;;;;1.40;0.40;;;14.40;99.90;;;;;;5054610;28;20431;-78
2023/02/17 11:53:59;;;;;;;0.40;0.40;;;14.30;99.90;;;;;;5055426;28;20430;-77
2023/02/17 11:56:32;;;;;;;0.40;0.30;;;14.00;99.90;;;;;;5054373;28;20500;-77
2023/02/17 11:59:16;;;;;;;0.67;0.30;;;13.80;99.90;;;;;;5054166;28;20937;-77
2023/02/17 12:02:01;;;;;;;0.40;0.30;;;13.60;99.90;;;;;;5054074;28;20934;-77
2023/02/17 12:04:30;;;;;;;0.67;0.30;;;13.50;99.90;;;;;;5053770;28;20430;-78
2023/02/17 12:07:28;;;;;;;0.40;0.30;;;13.30;99.90;;;;;;5054173;28;20469;-80
2023/02/17 12:10:03;;;;;;;0.40;0.30;;;13.10;99.90;;;;;;5052478;28;20447;-78
2023/02/17 12:12:41;;;;;;;0.63;0.33;;;12.90;99.90;;;;;;5054188;28;20438;-78
2023/02/17 12:15:27;;;;;;;0.70;0.30;;;12.90;99.90;;;;;;5054158;28;20442;-78
2023/02/17 12:18:03;;;;;;;0.40;0.40;;;12.80;99.90;;;;;;5054810;28;20490;-78
2023/02/17 12:20:44;;;;;;;0.40;0.40;;;12.70;99.90;;;;;;5053743;28;20937;-78
2023/02/17 12:23:34;;;;;;;1.00;0.40;;;12.60;99.90;;;;;;5054864;28;20445;-78
2023/02/17 12:26:06;;;;;;;0.30;0.30;;;12.50;99.90;;;;;;5053874;28;20427;-78
2023/02/17 12:28:48;;;;;;;0.37;0.37;;;12.50;99.90;;;;;;5053958;28;20429;-78
2023/02/17 12:31:30;;;;;;;0.50;0.50;;;12.40;99.90;;;;;;5053690;28;20435;-78
2023/02/17 12:34:02;;;;;;;0.60;0.40;;;12.40;99.90;;;;;;5053564;28;20941;-78
2023/02/17 12:36:33;;;;;;;0.30;0.30;;;12.30;99.90;;;;;;5053297;28;20574;-78
2023/02/17 12:39:10;;;;;;;0.70;0.40;;;12.40;99.90;;;;;;5053375;28;20438;-78
2023/02/17 12:41:41;;;;;;;0.73;0.30;;;12.40;99.90;;;;;;5054523;28;20813;-78
2023/02/17 12:44:13;;;;;;;0.30;0.20;;;12.30;99.90;;;;;;5053656;28;20426;-78
2023/02/17 12:46:43;;;;;;;1.10;0.40;;;12.40;99.90;;;;;;5053576;28;20470;-78
2023/02/17 12:49:17;;;;;;;0.40;0.40;;;12.50;99.90;;;;;;5053557;28;20431;-78
2023/02/17 12:51:48;;;;;;;0.40;0.30;;;12.70;99.90;;;;;;5053594;28;20434;-78
2023/02/17 12:54:23;;;;;;;0.40;0.30;;;12.80;99.90;;;;;;5053249;28;20437;-78
2023/02/17 12:57:14;;;;;;;0.87;0.63;;;13.00;99.90;;;;;;5053062;28;20481;-78
2023/02/17 12:59:43;;;;;;;0.40;0.40;;;13.10;99.90;;;;;;5053494;28;20435;-78
2023/02/17 13:02:12;;;;;;;0.50;0.50;;;13.20;99.90;;;;;;5053138;28;20929;-78
2023/02/17 13:04:40;;;;;;;0.60;0.40;;;13.20;99.90;;;;;;5053292;28;20450;-78
2023/02/17 13:07:26;;;;;;;0.40;0.40;;;13.20;99.90;;;;;;5053045;28;20459;-79
2023/02/17 13:09:56;;;;;;;0.30;0.30;;;13.20;99.90;;;;;;5053364;28;20434;-79